sensor_id;sensor_type;location;lat;lon;timestamp;P1;durP1;ratioP1;P2;durP2;ratioP2
54517;SDS011;40423;53.176;6.002;2022-11-11T00:03:26;17.33;;;7.53;;
54517;SDS011;40423;53.176;6.002;2022-11-11T00:05:53;13.05;;;7.05;;
54517;SDS011;40423;53.176;6.002;2022-11-11T00:08:19;15.02;;;7.60;;
54517;SDS011;40423;53.176;6.002;2022-11-11T00:10:44;14.25;;;7.32;;
54517;SDS011;40423;53.176;6.002;2022-11-11T00:13:10;18.45;;;7.70;;
54517;SDS011;40423;53.176;6.002;2022-11-11T00:15:36;17.75;;;8.27;;
54517;SDS011;40423;53.176;6.002;2022-11-11T00:18:03;15.23;;;7.38;;
54517;SDS011;40423;53.176;6.002;2022-11-11T00:20:48;14.95;;;8.85;;
54517;SDS011;40423;53.176;6.002;2022-11-11T00:23:33;16.60;;;9.13;;
54517;SDS011;40423;53.176;6.002;2022-11-11T00:26:17;15.98;;;8.75;;
54517;SDS011;40423;53.176;6.002;2022-11-11T00:28:43;14.57;;;8.95;;
54517;SDS011;40423;53.176;6.002;2022-11-11T00:31:12;15.23;;;9.05;;
54517;SDS011;40423;53.176;6.002;2022-11-11T00:33:39;16.23;;;8.82;;
54517;SDS011;40423;53.176;6.002;2022-11-11T00:36:05;15.23;;;8.30;;
54517;SDS011;40423;53.176;6.002;2022-11-11T00:38:32;20.25;;;9.52;;
54517;SDS011;40423;53.176;6.002;2022-11-11T00:41:14;19.42;;;8.88;;
54517;SDS011;40423;53.176;6.002;2022-11-11T00:43:41;17.27;;;9.18;;
54517;SDS011;40423;53.176;6.002;2022-11-11T00:46:07;17.17;;;9.40;;
54517;SDS011;40423;53.176;6.002;2022-11-11T00:48:52;15.77;;;9.25;;
54517;SDS011;40423;53.176;6.002;2022-11-11T00:51:37;21.85;;;9.65;;
54517;SDS011;40423;53.176;6.002;2022-11-11T00:54:04;27.08;;;9.77;;
54517;SDS011;40423;53.176;6.002;2022-11-11T00:56:29;17.65;;;9.68;;
54517;SDS011;40423;53.176;6.002;2022-11-11T00:58:55;23.35;;;9.48;;
54517;SDS011;40423;53.176;6.002;2022-11-11T01:01:21;17.08;;;9.38;;
54517;SDS011;40423;53.176;6.002;2022-11-11T01:03:46;19.90;;;9.43;;
54517;SDS011;40423;53.176;6.002;2022-11-11T01:06:12;19.00;;;9.20;;
54517;SDS011;40423;53.176;6.002;2022-11-11T01:08:38;18.70;;;10.20;;
54517;SDS011;40423;53.176;6.002;2022-11-11T01:11:14;21.52;;;10.48;;
54517;SDS011;40423;53.176;6.002;2022-11-11T01:13:43;15.60;;;9.02;;
54517;SDS011;40423;53.176;6.002;2022-11-11T01:16:11;16.70;;;9.32;;
54517;SDS011;40423;53.176;6.002;2022-11-11T01:18:48;14.52;;;8.25;;
54517;SDS011;40423;53.176;6.002;2022-11-11T01:21:16;20.42;;;9.10;;
54517;SDS011;40423;53.176;6.002;2022-11-11T01:23:44;14.20;;;8.73;;
54517;SDS011;40423;53.176;6.002;2022-11-11T01:26:21;16.85;;;9.90;;
54517;SDS011;40423;53.176;6.002;2022-11-11T01:28:51;21.00;;;9.85;;
54517;SDS011;40423;53.176;6.002;2022-11-11T01:31:19;19.23;;;9.35;;
54517;SDS011;40423;53.176;6.002;2022-11-11T01:33:46;18.25;;;9.73;;
54517;SDS011;40423;53.176;6.002;2022-11-11T01:36:14;16.08;;;9.65;;
54517;SDS011;40423;53.176;6.002;2022-11-11T01:38:41;24.52;;;11.40;;
54517;SDS011;40423;53.176;6.002;2022-11-11T01:41:07;18.58;;;10.13;;
54517;SDS011;40423;53.176;6.002;2022-11-11T01:43:56;20.15;;;9.70;;
54517;SDS011;40423;53.176;6.002;2022-11-11T01:49:15;16.48;;;9.55;;
54517;SDS011;40423;53.176;6.002;2022-11-11T01:54:20;18.80;;;10.50;;
54517;SDS011;40423;53.176;6.002;2022-11-11T01:56:53;17.30;;;9.23;;
54517;SDS011;40423;53.176;6.002;2022-11-11T01:59:24;18.20;;;9.68;;
54517;SDS011;40423;53.176;6.002;2022-11-11T02:01:51;20.08;;;9.98;;
54517;SDS011;40423;53.176;6.002;2022-11-11T02:04:17;15.85;;;10.02;;
54517;SDS011;40423;53.176;6.002;2022-11-11T02:07:03;16.50;;;9.75;;
54517;SDS011;40423;53.176;6.002;2022-11-11T02:09:32;23.98;;;11.73;;
54517;SDS011;40423;53.176;6.002;2022-11-11T02:11:59;16.20;;;10.68;;
54517;SDS011;40423;53.176;6.002;2022-11-11T02:14:50;18.48;;;10.88;;
54517;SDS011;40423;53.176;6.002;2022-11-11T02:17:18;20.90;;;11.00;;
54517;SDS011;40423;53.176;6.002;2022-11-11T02:19:53;26.25;;;13.48;;
54517;SDS011;40423;53.176;6.002;2022-11-11T02:22:29;23.88;;;11.90;;
54517;SDS011;40423;53.176;6.002;2022-11-11T02:25:16;19.45;;;11.50;;
54517;SDS011;40423;53.176;6.002;2022-11-11T02:27:47;20.70;;;12.85;;
54517;SDS011;40423;53.176;6.002;2022-11-11T02:30:16;22.40;;;13.38;;
54517;SDS011;40423;53.176;6.002;2022-11-11T02:32:44;24.17;;;14.25;;
54517;SDS011;40423;53.176;6.002;2022-11-11T02:35:13;23.33;;;14.25;;
54517;SDS011;40423;53.176;6.002;2022-11-11T02:37:38;22.40;;;12.98;;
54517;SDS011;40423;53.176;6.002;2022-11-11T02:40:06;20.92;;;14.05;;
54517;SDS011;40423;53.176;6.002;2022-11-11T02:42:33;27.38;;;14.65;;
54517;SDS011;40423;53.176;6.002;2022-11-11T02:45:00;25.08;;;14.98;;
54517;SDS011;40423;53.176;6.002;2022-11-11T02:47:26;28.98;;;15.70;;
54517;SDS011;40423;53.176;6.002;2022-11-11T02:49:51;22.90;;;15.88;;
54517;SDS011;40423;53.176;6.002;2022-11-11T02:52:17;25.88;;;15.50;;
54517;SDS011;40423;53.176;6.002;2022-11-11T02:54:43;29.00;;;17.13;;
54517;SDS011;40423;53.176;6.002;2022-11-11T02:57:09;25.95;;;16.30;;
54517;SDS011;40423;53.176;6.002;2022-11-11T02:59:35;27.08;;;17.13;;
54517;SDS011;40423;53.176;6.002;2022-11-11T03:02:03;25.15;;;16.48;;
54517;SDS011;40423;53.176;6.002;2022-11-11T03:04:29;26.10;;;18.17;;
54517;SDS011;40423;53.176;6.002;2022-11-11T03:06:55;30.05;;;17.25;;
54517;SDS011;40423;53.176;6.002;2022-11-11T03:09:20;25.05;;;17.10;;
54517;SDS011;40423;53.176;6.002;2022-11-11T03:11:46;32.03;;;18.02;;
54517;SDS011;40423;53.176;6.002;2022-11-11T03:14:12;27.52;;;18.70;;
54517;SDS011;40423;53.176;6.002;2022-11-11T03:16:37;31.10;;;20.25;;
54517;SDS011;40423;53.176;6.002;2022-11-11T03:19:22;30.98;;;20.88;;
54517;SDS011;40423;53.176;6.002;2022-11-11T03:21:47;28.23;;;19.92;;
54517;SDS011;40423;53.176;6.002;2022-11-11T03:24:13;30.00;;;19.83;;
54517;SDS011;40423;53.176;6.002;2022-11-11T03:26:38;30.55;;;22.00;;
54517;SDS011;40423;53.176;6.002;2022-11-11T03:29:04;32.53;;;20.48;;
54517;SDS011;40423;53.176;6.002;2022-11-11T03:31:30;30.63;;;21.30;;
54517;SDS011;40423;53.176;6.002;2022-11-11T03:33:56;35.22;;;21.13;;
54517;SDS011;40423;53.176;6.002;2022-11-11T03:36:42;35.67;;;21.30;;
54517;SDS011;40423;53.176;6.002;2022-11-11T03:39:30;32.40;;;21.77;;
54517;SDS011;40423;53.176;6.002;2022-11-11T03:41:56;35.58;;;22.20;;
54517;SDS011;40423;53.176;6.002;2022-11-11T03:44:22;32.08;;;21.98;;
54517;SDS011;40423;53.176;6.002;2022-11-11T03:46:48;31.08;;;22.02;;
54517;SDS011;40423;53.176;6.002;2022-11-11T03:49:13;34.80;;;22.67;;
54517;SDS011;40423;53.176;6.002;2022-11-11T03:51:39;32.38;;;22.73;;
54517;SDS011;40423;53.176;6.002;2022-11-11T03:54:05;35.55;;;23.83;;
54517;SDS011;40423;53.176;6.002;2022-11-11T03:56:30;36.10;;;23.17;;
54517;SDS011;40423;53.176;6.002;2022-11-11T03:58:56;31.30;;;22.35;;
54517;SDS011;40423;53.176;6.002;2022-11-11T04:01:22;38.40;;;24.90;;
54517;SDS011;40423;53.176;6.002;2022-11-11T04:06:51;35.65;;;23.27;;
54517;SDS011;40423;53.176;6.002;2022-11-11T04:12:19;41.10;;;23.92;;
54517;SDS011;40423;53.176;6.002;2022-11-11T04:14:46;37.78;;;24.33;;
54517;SDS011;40423;53.176;6.002;2022-11-11T04:19:56;39.45;;;24.98;;
54517;SDS011;40423;53.176;6.002;2022-11-11T04:25:06;40.72;;;25.33;;
54517;SDS011;40423;53.176;6.002;2022-11-11T04:27:50;41.50;;;26.45;;
54517;SDS011;40423;53.176;6.002;2022-11-11T04:30:36;37.53;;;24.70;;
54517;SDS011;40423;53.176;6.002;2022-11-11T04:33:02;37.33;;;24.02;;
54517;SDS011;40423;53.176;6.002;2022-11-11T04:35:27;38.63;;;25.80;;
54517;SDS011;40423;53.176;6.002;2022-11-11T04:37:53;36.05;;;23.98;;
54517;SDS011;40423;53.176;6.002;2022-11-11T04:40:38;37.47;;;24.90;;
54517;SDS011;40423;53.176;6.002;2022-11-11T04:45:48;36.42;;;23.80;;
54517;SDS011;40423;53.176;6.002;2022-11-11T04:48:14;39.75;;;26.17;;
54517;SDS011;40423;53.176;6.002;2022-11-11T04:50:42;44.20;;;26.40;;
54517;SDS011;40423;53.176;6.002;2022-11-11T04:53:12;39.10;;;25.92;;
54517;SDS011;40423;53.176;6.002;2022-11-11T04:55:39;39.17;;;25.98;;
54517;SDS011;40423;53.176;6.002;2022-11-11T04:58:25;41.53;;;27.20;;
54517;SDS011;40423;53.176;6.002;2022-11-11T05:00:52;38.55;;;27.30;;
54517;SDS011;40423;53.176;6.002;2022-11-11T05:03:18;45.28;;;27.45;;
54517;SDS011;40423;53.176;6.002;2022-11-11T05:08:38;42.20;;;25.40;;
54517;SDS011;40423;53.176;6.002;2022-11-11T05:11:24;41.88;;;26.88;;
54517;SDS011;40423;53.176;6.002;2022-11-11T05:13:57;41.25;;;27.40;;
54517;SDS011;40423;53.176;6.002;2022-11-11T05:16:49;38.35;;;26.63;;
54517;SDS011;40423;53.176;6.002;2022-11-11T05:19:35;40.53;;;25.45;;
54517;SDS011;40423;53.176;6.002;2022-11-11T05:22:21;43.72;;;25.95;;
54517;SDS011;40423;53.176;6.002;2022-11-11T05:24:47;41.38;;;26.48;;
54517;SDS011;40423;53.176;6.002;2022-11-11T05:27:32;42.65;;;26.65;;
54517;SDS011;40423;53.176;6.002;2022-11-11T05:29:57;41.92;;;26.33;;
54517;SDS011;40423;53.176;6.002;2022-11-11T05:32:24;38.15;;;24.73;;
54517;SDS011;40423;53.176;6.002;2022-11-11T05:34:50;35.42;;;23.77;;
54517;SDS011;40423;53.176;6.002;2022-11-11T05:37:17;33.47;;;23.25;;
54517;SDS011;40423;53.176;6.002;2022-11-11T05:39:46;41.33;;;24.88;;
54517;SDS011;40423;53.176;6.002;2022-11-11T05:42:12;38.65;;;24.20;;
54517;SDS011;40423;53.176;6.002;2022-11-11T05:44:38;33.33;;;22.75;;
54517;SDS011;40423;53.176;6.002;2022-11-11T05:47:04;38.63;;;24.75;;
54517;SDS011;40423;53.176;6.002;2022-11-11T05:49:29;38.38;;;24.25;;
54517;SDS011;40423;53.176;6.002;2022-11-11T05:51:55;40.35;;;24.75;;
54517;SDS011;40423;53.176;6.002;2022-11-11T05:54:22;43.13;;;24.25;;
54517;SDS011;40423;53.176;6.002;2022-11-11T05:56:48;39.28;;;25.40;;
54517;SDS011;40423;53.176;6.002;2022-11-11T05:59:13;40.08;;;25.55;;
54517;SDS011;40423;53.176;6.002;2022-11-11T06:01:39;41.58;;;25.00;;
54517;SDS011;40423;53.176;6.002;2022-11-11T06:04:05;38.70;;;24.20;;
54517;SDS011;40423;53.176;6.002;2022-11-11T06:06:33;36.33;;;24.25;;
54517;SDS011;40423;53.176;6.002;2022-11-11T06:09:00;36.88;;;24.65;;
54517;SDS011;40423;53.176;6.002;2022-11-11T06:11:26;33.75;;;23.48;;
54517;SDS011;40423;53.176;6.002;2022-11-11T06:13:53;36.75;;;23.70;;
54517;SDS011;40423;53.176;6.002;2022-11-11T06:16:19;34.38;;;24.42;;
54517;SDS011;40423;53.176;6.002;2022-11-11T06:18:45;34.97;;;22.77;;
54517;SDS011;40423;53.176;6.002;2022-11-11T06:21:11;41.47;;;24.50;;
54517;SDS011;40423;53.176;6.002;2022-11-11T06:23:37;42.75;;;23.15;;
54517;SDS011;40423;53.176;6.002;2022-11-11T06:26:03;35.92;;;21.95;;
54517;SDS011;40423;53.176;6.002;2022-11-11T06:31:09;34.10;;;22.27;;
54517;SDS011;40423;53.176;6.002;2022-11-11T06:33:36;32.92;;;22.50;;
54517;SDS011;40423;53.176;6.002;2022-11-11T06:36:03;35.80;;;22.92;;
54517;SDS011;40423;53.176;6.002;2022-11-11T06:38:29;36.05;;;23.60;;
54517;SDS011;40423;53.176;6.002;2022-11-11T06:40:55;34.55;;;23.00;;
54517;SDS011;40423;53.176;6.002;2022-11-11T06:43:24;40.05;;;24.77;;
54517;SDS011;40423;53.176;6.002;2022-11-11T06:45:50;39.33;;;23.17;;
54517;SDS011;40423;53.176;6.002;2022-11-11T06:48:18;32.78;;;22.75;;
54517;SDS011;40423;53.176;6.002;2022-11-11T06:50:44;33.10;;;22.30;;
54517;SDS011;40423;53.176;6.002;2022-11-11T06:53:11;36.63;;;23.38;;
54517;SDS011;40423;53.176;6.002;2022-11-11T06:55:39;34.45;;;21.92;;
54517;SDS011;40423;53.176;6.002;2022-11-11T06:58:09;36.22;;;23.65;;
54517;SDS011;40423;53.176;6.002;2022-11-11T07:00:43;36.80;;;23.05;;
54517;SDS011;40423;53.176;6.002;2022-11-11T07:03:11;34.58;;;22.05;;
54517;SDS011;40423;53.176;6.002;2022-11-11T07:05:38;32.47;;;22.98;;
54517;SDS011;40423;53.176;6.002;2022-11-11T07:08:05;32.67;;;22.75;;
54517;SDS011;40423;53.176;6.002;2022-11-11T07:10:39;31.33;;;21.73;;
54517;SDS011;40423;53.176;6.002;2022-11-11T07:13:08;34.45;;;22.98;;
54517;SDS011;40423;53.176;6.002;2022-11-11T07:15:35;34.53;;;22.30;;
54517;SDS011;40423;53.176;6.002;2022-11-11T07:18:01;34.78;;;23.13;;
54517;SDS011;40423;53.176;6.002;2022-11-11T07:20:27;40.33;;;23.15;;
54517;SDS011;40423;53.176;6.002;2022-11-11T07:22:53;36.58;;;23.17;;
54517;SDS011;40423;53.176;6.002;2022-11-11T07:25:19;35.28;;;23.05;;
54517;SDS011;40423;53.176;6.002;2022-11-11T07:27:45;31.60;;;21.13;;
54517;SDS011;40423;53.176;6.002;2022-11-11T07:30:11;32.85;;;22.40;;
54517;SDS011;40423;53.176;6.002;2022-11-11T07:32:42;36.03;;;23.13;;
54517;SDS011;40423;53.176;6.002;2022-11-11T07:35:12;41.47;;;23.30;;
54517;SDS011;40423;53.176;6.002;2022-11-11T07:37:39;35.75;;;23.73;;
54517;SDS011;40423;53.176;6.002;2022-11-11T07:40:05;33.42;;;21.67;;
54517;SDS011;40423;53.176;6.002;2022-11-11T07:42:36;29.80;;;21.58;;
54517;SDS011;40423;53.176;6.002;2022-11-11T07:45:03;35.72;;;23.60;;
54517;SDS011;40423;53.176;6.002;2022-11-11T07:47:29;36.28;;;22.33;;
54517;SDS011;40423;53.176;6.002;2022-11-11T07:49:55;34.20;;;22.83;;
54517;SDS011;40423;53.176;6.002;2022-11-11T07:52:21;32.13;;;22.80;;
54517;SDS011;40423;53.176;6.002;2022-11-11T07:54:48;34.67;;;22.27;;
54517;SDS011;40423;53.176;6.002;2022-11-11T07:57:14;35.03;;;21.58;;
54517;SDS011;40423;53.176;6.002;2022-11-11T07:59:40;37.65;;;23.75;;
54517;SDS011;40423;53.176;6.002;2022-11-11T08:02:09;40.00;;;23.45;;
54517;SDS011;40423;53.176;6.002;2022-11-11T08:04:36;35.58;;;23.48;;
54517;SDS011;40423;53.176;6.002;2022-11-11T08:07:02;33.10;;;24.38;;
54517;SDS011;40423;53.176;6.002;2022-11-11T08:09:28;39.17;;;24.30;;
54517;SDS011;40423;53.176;6.002;2022-11-11T08:11:54;36.65;;;23.58;;
54517;SDS011;40423;53.176;6.002;2022-11-11T08:17:03;39.53;;;24.23;;
54517;SDS011;40423;53.176;6.002;2022-11-11T08:19:29;38.10;;;23.98;;
54517;SDS011;40423;53.176;6.002;2022-11-11T08:21:55;40.17;;;24.05;;
54517;SDS011;40423;53.176;6.002;2022-11-11T08:24:21;41.45;;;23.92;;
54517;SDS011;40423;53.176;6.002;2022-11-11T08:26:47;33.35;;;24.92;;
54517;SDS011;40423;53.176;6.002;2022-11-11T08:29:13;37.03;;;24.55;;
54517;SDS011;40423;53.176;6.002;2022-11-11T08:31:39;36.22;;;24.30;;
54517;SDS011;40423;53.176;6.002;2022-11-11T08:34:05;37.78;;;24.60;;
54517;SDS011;40423;53.176;6.002;2022-11-11T08:36:30;34.42;;;24.63;;
54517;SDS011;40423;53.176;6.002;2022-11-11T08:38:56;38.42;;;24.25;;
54517;SDS011;40423;53.176;6.002;2022-11-11T08:41:22;39.88;;;26.00;;
54517;SDS011;40423;53.176;6.002;2022-11-11T08:43:52;37.53;;;24.95;;
54517;SDS011;40423;53.176;6.002;2022-11-11T08:46:19;37.90;;;26.52;;
54517;SDS011;40423;53.176;6.002;2022-11-11T08:48:45;35.85;;;24.83;;
54517;SDS011;40423;53.176;6.002;2022-11-11T08:51:11;36.00;;;24.67;;
54517;SDS011;40423;53.176;6.002;2022-11-11T08:53:38;38.10;;;24.92;;
54517;SDS011;40423;53.176;6.002;2022-11-11T08:56:04;42.45;;;25.88;;
54517;SDS011;40423;53.176;6.002;2022-11-11T08:58:30;40.03;;;26.83;;
54517;SDS011;40423;53.176;6.002;2022-11-11T09:00:56;39.08;;;26.90;;
54517;SDS011;40423;53.176;6.002;2022-11-11T09:03:22;44.90;;;27.85;;
54517;SDS011;40423;53.176;6.002;2022-11-11T09:05:48;36.80;;;26.02;;
54517;SDS011;40423;53.176;6.002;2022-11-11T09:08:14;37.95;;;26.25;;
54517;SDS011;40423;53.176;6.002;2022-11-11T09:10:40;37.72;;;26.65;;
54517;SDS011;40423;53.176;6.002;2022-11-11T09:13:05;36.70;;;25.30;;
54517;SDS011;40423;53.176;6.002;2022-11-11T09:15:32;38.85;;;25.45;;
54517;SDS011;40423;53.176;6.002;2022-11-11T09:17:58;41.50;;;27.05;;
54517;SDS011;40423;53.176;6.002;2022-11-11T09:20:24;38.67;;;26.50;;
54517;SDS011;40423;53.176;6.002;2022-11-11T09:22:50;41.40;;;24.98;;
54517;SDS011;40423;53.176;6.002;2022-11-11T09:25:17;42.40;;;27.83;;
54517;SDS011;40423;53.176;6.002;2022-11-11T09:27:43;39.00;;;25.65;;
54517;SDS011;40423;53.176;6.002;2022-11-11T09:30:17;44.83;;;26.48;;
54517;SDS011;40423;53.176;6.002;2022-11-11T09:32:43;45.35;;;26.55;;
54517;SDS011;40423;53.176;6.002;2022-11-11T09:35:08;37.55;;;26.20;;
54517;SDS011;40423;53.176;6.002;2022-11-11T09:37:34;40.30;;;26.05;;
54517;SDS011;40423;53.176;6.002;2022-11-11T09:40:00;41.05;;;26.00;;
54517;SDS011;40423;53.176;6.002;2022-11-11T09:42:32;39.53;;;25.15;;
54517;SDS011;40423;53.176;6.002;2022-11-11T09:47:49;43.83;;;26.10;;
54517;SDS011;40423;53.176;6.002;2022-11-11T09:50:27;41.45;;;27.80;;
54517;SDS011;40423;53.176;6.002;2022-11-11T09:53:03;43.70;;;26.52;;
54517;SDS011;40423;53.176;6.002;2022-11-11T09:56:15;38.83;;;26.95;;
54517;SDS011;40423;53.176;6.002;2022-11-11T09:58:58;40.30;;;26.33;;
54517;SDS011;40423;53.176;6.002;2022-11-11T10:01:33;42.22;;;25.70;;
54517;SDS011;40423;53.176;6.002;2022-11-11T10:04:16;35.80;;;25.25;;
54517;SDS011;40423;53.176;6.002;2022-11-11T10:06:54;37.30;;;26.20;;
54517;SDS011;40423;53.176;6.002;2022-11-11T10:09:30;41.60;;;25.30;;
54517;SDS011;40423;53.176;6.002;2022-11-11T10:12:12;35.58;;;24.75;;
54517;SDS011;40423;53.176;6.002;2022-11-11T10:14:44;34.08;;;24.05;;
54517;SDS011;40423;53.176;6.002;2022-11-11T10:20:08;39.47;;;26.08;;
54517;SDS011;40423;53.176;6.002;2022-11-11T10:22:37;40.92;;;28.17;;
54517;SDS011;40423;53.176;6.002;2022-11-11T10:27:41;40.63;;;26.42;;
54517;SDS011;40423;53.176;6.002;2022-11-11T10:30:30;37.83;;;25.33;;
54517;SDS011;40423;53.176;6.002;2022-11-11T10:33:00;36.05;;;24.85;;
54517;SDS011;40423;53.176;6.002;2022-11-11T10:35:29;36.83;;;25.08;;
54517;SDS011;40423;53.176;6.002;2022-11-11T10:43:29;36.47;;;24.42;;
54517;SDS011;40423;53.176;6.002;2022-11-11T10:51:14;40.05;;;23.88;;
54517;SDS011;40423;53.176;6.002;2022-11-11T11:07:39;34.97;;;24.75;;
54517;SDS011;40423;53.176;6.002;2022-11-11T11:10:31;31.15;;;23.23;;
54517;SDS011;40423;53.176;6.002;2022-11-11T11:16:16;31.92;;;23.30;;
54517;SDS011;40423;53.176;6.002;2022-11-11T11:19:12;34.38;;;23.35;;
54517;SDS011;40423;53.176;6.002;2022-11-11T11:24:33;33.60;;;24.65;;
54517;SDS011;40423;53.176;6.002;2022-11-11T11:27:05;31.55;;;22.55;;
54517;SDS011;40423;53.176;6.002;2022-11-11T11:29:42;32.30;;;23.02;;
54517;SDS011;40423;53.176;6.002;2022-11-11T11:32:10;37.83;;;23.75;;
54517;SDS011;40423;53.176;6.002;2022-11-11T11:37:13;33.47;;;23.00;;
54517;SDS011;40423;53.176;6.002;2022-11-11T11:39:40;35.42;;;23.80;;
54517;SDS011;40423;53.176;6.002;2022-11-11T11:48:04;31.42;;;23.05;;
54517;SDS011;40423;53.176;6.002;2022-11-11T11:50:47;31.92;;;22.80;;
54517;SDS011;40423;53.176;6.002;2022-11-11T11:55:47;36.08;;;24.48;;
54517;SDS011;40423;53.176;6.002;2022-11-11T12:01:12;33.25;;;23.02;;
54517;SDS011;40423;53.176;6.002;2022-11-11T12:08:59;33.83;;;23.10;;
54517;SDS011;40423;53.176;6.002;2022-11-11T12:14:32;35.60;;;24.60;;
54517;SDS011;40423;53.176;6.002;2022-11-11T12:19:51;37.38;;;23.40;;
54517;SDS011;40423;53.176;6.002;2022-11-11T12:45:12;41.03;;;24.83;;
54517;SDS011;40423;53.176;6.002;2022-11-11T12:53:30;35.28;;;23.48;;
54517;SDS011;40423;53.176;6.002;2022-11-11T12:58:59;32.03;;;23.23;;
54517;SDS011;40423;53.176;6.002;2022-11-11T13:10:20;32.47;;;21.27;;
54517;SDS011;40423;53.176;6.002;2022-11-11T13:16:18;39.60;;;24.33;;
54517;SDS011;40423;53.176;6.002;2022-11-11T13:18:59;35.15;;;23.92;;
54517;SDS011;40423;53.176;6.002;2022-11-11T13:21:47;31.40;;;22.95;;
54517;SDS011;40423;53.176;6.002;2022-11-11T13:24:18;34.67;;;22.85;;
54517;SDS011;40423;53.176;6.002;2022-11-11T13:26:47;32.85;;;22.05;;
54517;SDS011;40423;53.176;6.002;2022-11-11T13:32:17;35.40;;;24.67;;
54517;SDS011;40423;53.176;6.002;2022-11-11T13:34:49;36.83;;;23.77;;
54517;SDS011;40423;53.176;6.002;2022-11-11T13:37:21;33.55;;;23.92;;
54517;SDS011;40423;53.176;6.002;2022-11-11T13:39:52;32.42;;;23.13;;
54517;SDS011;40423;53.176;6.002;2022-11-11T13:42:45;35.92;;;24.30;;
54517;SDS011;40423;53.176;6.002;2022-11-11T13:45:21;33.13;;;22.92;;
54517;SDS011;40423;53.176;6.002;2022-11-11T13:48:03;36.30;;;23.50;;
54517;SDS011;40423;53.176;6.002;2022-11-11T13:50:30;33.33;;;23.55;;
54517;SDS011;40423;53.176;6.002;2022-11-11T13:53:12;31.65;;;21.95;;
54517;SDS011;40423;53.176;6.002;2022-11-11T13:56:00;31.35;;;21.70;;
54517;SDS011;40423;53.176;6.002;2022-11-11T13:58:32;32.33;;;20.98;;
54517;SDS011;40423;53.176;6.002;2022-11-11T14:01:07;28.63;;;22.08;;
54517;SDS011;40423;53.176;6.002;2022-11-11T14:03:36;30.88;;;20.95;;
54517;SDS011;40423;53.176;6.002;2022-11-11T14:06:28;28.83;;;20.50;;
54517;SDS011;40423;53.176;6.002;2022-11-11T14:09:00;28.40;;;21.90;;
54517;SDS011;40423;53.176;6.002;2022-11-11T14:11:31;29.45;;;21.00;;
54517;SDS011;40423;53.176;6.002;2022-11-11T14:17:03;25.98;;;19.88;;
54517;SDS011;40423;53.176;6.002;2022-11-11T14:19:30;35.03;;;21.42;;
54517;SDS011;40423;53.176;6.002;2022-11-11T14:22:26;30.15;;;21.90;;
54517;SDS011;40423;53.176;6.002;2022-11-11T14:24:52;35.45;;;23.35;;
54517;SDS011;40423;53.176;6.002;2022-11-11T14:27:20;32.78;;;22.27;;
54517;SDS011;40423;53.176;6.002;2022-11-11T14:29:54;29.48;;;22.67;;
54517;SDS011;40423;53.176;6.002;2022-11-11T14:32:38;28.90;;;22.70;;
54517;SDS011;40423;53.176;6.002;2022-11-11T14:40:24;29.13;;;21.15;;
54517;SDS011;40423;53.176;6.002;2022-11-11T14:42:54;29.20;;;19.95;;
54517;SDS011;40423;53.176;6.002;2022-11-11T14:47:55;32.05;;;20.05;;
54517;SDS011;40423;53.176;6.002;2022-11-11T14:52:58;30.45;;;20.98;;
54517;SDS011;40423;53.176;6.002;2022-11-11T14:55:33;30.30;;;21.50;;
54517;SDS011;40423;53.176;6.002;2022-11-11T14:58:15;40.00;;;23.65;;
54517;SDS011;40423;53.176;6.002;2022-11-11T15:00:45;28.88;;;21.95;;
54517;SDS011;40423;53.176;6.002;2022-11-11T15:03:13;31.92;;;22.63;;
54517;SDS011;40423;53.176;6.002;2022-11-11T15:06:04;28.60;;;20.20;;
54517;SDS011;40423;53.176;6.002;2022-11-11T15:11:32;31.50;;;22.58;;
54517;SDS011;40423;53.176;6.002;2022-11-11T15:19:14;27.67;;;21.30;;
54517;SDS011;40423;53.176;6.002;2022-11-11T15:25:01;33.78;;;22.70;;
54517;SDS011;40423;53.176;6.002;2022-11-11T15:29:58;33.03;;;22.55;;
54517;SDS011;40423;53.176;6.002;2022-11-11T15:38:09;27.88;;;20.52;;
54517;SDS011;40423;53.176;6.002;2022-11-11T15:40:47;27.70;;;20.95;;
54517;SDS011;40423;53.176;6.002;2022-11-11T15:43:27;31.05;;;21.63;;
54517;SDS011;40423;53.176;6.002;2022-11-11T15:45:59;33.08;;;22.65;;
54517;SDS011;40423;53.176;6.002;2022-11-11T15:48:37;30.48;;;21.15;;
54517;SDS011;40423;53.176;6.002;2022-11-11T15:51:25;32.60;;;22.45;;
54517;SDS011;40423;53.176;6.002;2022-11-11T15:53:54;30.90;;;22.95;;
54517;SDS011;40423;53.176;6.002;2022-11-11T15:56:48;28.92;;;21.38;;
54517;SDS011;40423;53.176;6.002;2022-11-11T15:59:20;33.85;;;23.33;;
54517;SDS011;40423;53.176;6.002;2022-11-11T16:01:50;28.98;;;21.20;;
54517;SDS011;40423;53.176;6.002;2022-11-11T16:04:17;33.25;;;23.60;;
54517;SDS011;40423;53.176;6.002;2022-11-11T16:06:47;33.92;;;22.25;;
54517;SDS011;40423;53.176;6.002;2022-11-11T16:09:15;32.10;;;23.00;;
54517;SDS011;40423;53.176;6.002;2022-11-11T16:11:46;34.63;;;24.13;;
54517;SDS011;40423;53.176;6.002;2022-11-11T16:14:20;33.47;;;23.88;;
54517;SDS011;40423;53.176;6.002;2022-11-11T16:16:57;32.45;;;23.33;;
54517;SDS011;40423;53.176;6.002;2022-11-11T16:22:03;35.05;;;22.95;;
54517;SDS011;40423;53.176;6.002;2022-11-11T16:24:35;32.35;;;22.80;;
54517;SDS011;40423;53.176;6.002;2022-11-11T16:27:03;35.78;;;23.55;;
54517;SDS011;40423;53.176;6.002;2022-11-11T16:29:38;32.55;;;23.50;;
54517;SDS011;40423;53.176;6.002;2022-11-11T16:34:49;34.70;;;23.55;;
54517;SDS011;40423;53.176;6.002;2022-11-11T16:37:18;29.33;;;22.40;;
54517;SDS011;40423;53.176;6.002;2022-11-11T16:39:45;30.52;;;21.60;;
54517;SDS011;40423;53.176;6.002;2022-11-11T16:42:17;34.55;;;24.10;;
54517;SDS011;40423;53.176;6.002;2022-11-11T16:44:49;35.08;;;24.17;;
54517;SDS011;40423;53.176;6.002;2022-11-11T16:52:29;32.75;;;24.45;;
54517;SDS011;40423;53.176;6.002;2022-11-11T16:55:03;34.17;;;23.83;;
54517;SDS011;40423;53.176;6.002;2022-11-11T16:57:31;34.80;;;24.38;;
54517;SDS011;40423;53.176;6.002;2022-11-11T16:59:59;38.22;;;25.58;;
54517;SDS011;40423;53.176;6.002;2022-11-11T17:02:28;34.08;;;24.25;;
54517;SDS011;40423;53.176;6.002;2022-11-11T17:04:54;35.45;;;25.25;;
54517;SDS011;40423;53.176;6.002;2022-11-11T17:07:38;37.60;;;25.73;;
54517;SDS011;40423;53.176;6.002;2022-11-11T17:12:45;40.88;;;26.95;;
54517;SDS011;40423;53.176;6.002;2022-11-11T17:15:13;36.17;;;24.10;;
54517;SDS011;40423;53.176;6.002;2022-11-11T17:17:40;36.75;;;23.83;;
54517;SDS011;40423;53.176;6.002;2022-11-11T17:20:15;40.03;;;26.05;;
54517;SDS011;40423;53.176;6.002;2022-11-11T17:25:19;37.05;;;25.80;;
54517;SDS011;40423;53.176;6.002;2022-11-11T17:27:45;38.22;;;26.30;;
54517;SDS011;40423;53.176;6.002;2022-11-11T17:30:11;38.95;;;25.83;;
54517;SDS011;40423;53.176;6.002;2022-11-11T17:32:38;41.83;;;25.73;;
54517;SDS011;40423;53.176;6.002;2022-11-11T17:35:04;40.10;;;25.50;;
54517;SDS011;40423;53.176;6.002;2022-11-11T17:37:36;35.33;;;24.63;;
54517;SDS011;40423;53.176;6.002;2022-11-11T17:40:06;38.70;;;24.48;;
54517;SDS011;40423;53.176;6.002;2022-11-11T17:42:33;34.78;;;23.98;;
54517;SDS011;40423;53.176;6.002;2022-11-11T17:44:59;41.13;;;25.42;;
54517;SDS011;40423;53.176;6.002;2022-11-11T17:47:25;34.80;;;25.20;;
54517;SDS011;40423;53.176;6.002;2022-11-11T17:49:51;38.00;;;24.50;;
54517;SDS011;40423;53.176;6.002;2022-11-11T17:52:17;37.88;;;25.27;;